sensor_id;sensor_type;location;lat;lon;timestamp;temperature;humidity
24176;DHT22;12324;48.146;11.502;2023-07-02T00:01:53;16.40;99.90
24176;DHT22;12324;48.146;11.502;2023-07-02T00:04:20;16.40;99.90
24176;DHT22;12324;48.146;11.502;2023-07-02T00:06:47;16.40;99.90
24176;DHT22;12324;48.146;11.502;2023-07-02T00:09:15;16.40;99.90
24176;DHT22;12324;48.146;11.502;2023-07-02T00:11:45;16.40;99.90
24176;DHT22;12324;48.146;11.502;2023-07-02T00:14:14;16.40;99.90
24176;DHT22;12324;48.146;11.502;2023-07-02T00:16:45;16.50;99.90
24176;DHT22;12324;48.146;11.502;2023-07-02T00:19:14;16.50;99.90
24176;DHT22;12324;48.146;11.502;2023-07-02T00:21:42;16.50;99.90
24176;DHT22;12324;48.146;11.502;2023-07-02T00:24:09;16.50;99.90
24176;DHT22;12324;48.146;11.502;2023-07-02T00:26:36;16.60;99.90
24176;DHT22;12324;48.146;11.502;2023-07-02T00:29:04;16.60;99.90
24176;DHT22;12324;48.146;11.502;2023-07-02T03:24:21;16.70;99.90
24176;DHT22;12324;48.146;11.502;2023-07-02T03:26:48;14.50;99.90
24176;DHT22;12324;48.146;11.502;2023-07-02T03:29:15;14.40;99.90
24176;DHT22;12324;48.146;11.502;2023-07-02T03:31:42;14.40;99.90
24176;DHT22;12324;48.146;11.502;2023-07-02T03:34:09;14.30;99.90
24176;DHT22;12324;48.146;11.502;2023-07-02T03:36:37;14.20;99.90
24176;DHT22;12324;48.146;11.502;2023-07-02T03:39:04;14.00;99.90
24176;DHT22;12324;48.146;11.502;2023-07-02T03:41:35;14.00;99.90
24176;DHT22;12324;48.146;11.502;2023-07-02T03:44:02;13.80;99.90
24176;DHT22;12324;48.146;11.502;2023-07-02T03:46:29;13.70;99.90
24176;DHT22;12324;48.146;11.502;2023-07-02T03:48:57;13.70;99.90
24176;DHT22;12324;48.146;11.502;2023-07-02T03:51:24;13.70;99.90
24176;DHT22;12324;48.146;11.502;2023-07-02T03:53:51;13.60;99.90
24176;DHT22;12324;48.146;11.502;2023-07-02T03:56:18;13.60;99.90
24176;DHT22;12324;48.146;11.502;2023-07-02T03:58:45;13.50;99.90
24176;DHT22;12324;48.146;11.502;2023-07-02T04:01:12;13.50;99.90
24176;DHT22;12324;48.146;11.502;2023-07-02T04:03:48;13.50;99.90
24176;DHT22;12324;48.146;11.502;2023-07-02T04:06:16;13.60;99.90
24176;DHT22;12324;48.146;11.502;2023-07-02T04:08:43;13.50;99.90
24176;DHT22;12324;48.146;11.502;2023-07-02T04:11:11;13.60;99.90
24176;DHT22;12324;48.146;11.502;2023-07-02T04:13:38;13.60;99.90
24176;DHT22;12324;48.146;11.502;2023-07-02T04:16:06;13.70;99.90
24176;DHT22;12324;48.146;11.502;2023-07-02T04:18:33;13.80;99.90
24176;DHT22;12324;48.146;11.502;2023-07-02T04:21:01;13.80;99.90
24176;DHT22;12324;48.146;11.502;2023-07-02T04:23:28;13.80;99.90
24176;DHT22;12324;48.146;11.502;2023-07-02T04:25:55;13.80;99.90
24176;DHT22;12324;48.146;11.502;2023-07-02T04:28:41;13.70;99.90
24176;DHT22;12324;48.146;11.502;2023-07-02T04:31:08;13.70;99.90
24176;DHT22;12324;48.146;11.502;2023-07-02T04:33:35;13.60;99.90
24176;DHT22;12324;48.146;11.502;2023-07-02T04:36:05;13.70;99.90
24176;DHT22;12324;48.146;11.502;2023-07-02T04:38:32;13.70;99.90
24176;DHT22;12324;48.146;11.502;2023-07-02T04:40:58;14.00;99.90
24176;DHT22;12324;48.146;11.502;2023-07-02T04:43:28;13.90;99.90
24176;DHT22;12324;48.146;11.502;2023-07-02T04:45:57;13.90;99.90
24176;DHT22;12324;48.146;11.502;2023-07-02T04:48:24;14.00;99.90
24176;DHT22;12324;48.146;11.502;2023-07-02T04:50:51;14.00;99.90
24176;DHT22;12324;48.146;11.502;2023-07-02T04:53:18;13.90;99.90
24176;DHT22;12324;48.146;11.502;2023-07-02T04:55:44;13.90;99.90
24176;DHT22;12324;48.146;11.502;2023-07-02T04:58:11;14.00;99.90
24176;DHT22;12324;48.146;11.502;2023-07-02T05:00:38;14.10;99.90
24176;DHT22;12324;48.146;11.502;2023-07-02T05:03:05;14.10;99.90
24176;DHT22;12324;48.146;11.502;2023-07-02T05:05:31;14.10;99.90
24176;DHT22;12324;48.146;11.502;2023-07-02T05:07:58;14.10;99.90
24176;DHT22;12324;48.146;11.502;2023-07-02T05:10:25;14.10;99.90
24176;DHT22;12324;48.146;11.502;2023-07-02T05:12:52;14.20;99.90
24176;DHT22;12324;48.146;11.502;2023-07-02T05:15:18;14.10;99.90
24176;DHT22;12324;48.146;11.502;2023-07-02T05:17:45;14.10;99.90
24176;DHT22;12324;48.146;11.502;2023-07-02T05:20:12;14.20;99.90
24176;DHT22;12324;48.146;11.502;2023-07-02T05:22:39;14.30;99.90
24176;DHT22;12324;48.146;11.502;2023-07-02T05:25:06;14.30;99.90
24176;DHT22;12324;48.146;11.502;2023-07-02T05:27:33;14.30;99.90
24176;DHT22;12324;48.146;11.502;2023-07-02T05:29:59;14.50;99.90
24176;DHT22;12324;48.146;11.502;2023-07-02T05:32:26;14.50;99.90
24176;DHT22;12324;48.146;11.502;2023-07-02T05:34:53;14.50;99.90
24176;DHT22;12324;48.146;11.502;2023-07-02T05:37:20;14.50;99.90
24176;DHT22;12324;48.146;11.502;2023-07-02T05:39:48;14.50;99.90
24176;DHT22;12324;48.146;11.502;2023-07-02T05:42:15;14.70;99.90
24176;DHT22;12324;48.146;11.502;2023-07-02T05:44:41;14.70;99.90
24176;DHT22;12324;48.146;11.502;2023-07-02T05:47:08;14.70;99.90
24176;DHT22;12324;48.146;11.502;2023-07-02T05:49:35;15.00;99.90
24176;DHT22;12324;48.146;11.502;2023-07-02T05:52:02;15.00;99.90
24176;DHT22;12324;48.146;11.502;2023-07-02T05:54:29;15.00;99.90
24176;DHT22;12324;48.146;11.502;2023-07-02T05:56:55;15.00;99.90
24176;DHT22;12324;48.146;11.502;2023-07-02T05:59:22;15.10;99.90
24176;DHT22;12324;48.146;11.502;2023-07-02T06:01:49;15.20;99.90
24176;DHT22;12324;48.146;11.502;2023-07-02T06:04:15;15.20;99.90
24176;DHT22;12324;48.146;11.502;2023-07-02T06:06:42;15.40;99.90
24176;DHT22;12324;48.146;11.502;2023-07-02T06:09:09;15.20;99.90
24176;DHT22;12324;48.146;11.502;2023-07-02T06:11:36;15.10;99.90
24176;DHT22;12324;48.146;11.502;2023-07-02T06:14:04;15.10;99.90
24176;DHT22;12324;48.146;11.502;2023-07-02T06:16:31;15.00;99.90
24176;DHT22;12324;48.146;11.502;2023-07-02T06:18:58;15.00;99.90
24176;DHT22;12324;48.146;11.502;2023-07-02T06:21:24;15.10;99.90
24176;DHT22;12324;48.146;11.502;2023-07-02T06:23:56;15.00;99.90
24176;DHT22;12324;48.146;11.502;2023-07-02T06:26:25;15.00;99.90
24176;DHT22;12324;48.146;11.502;2023-07-02T06:28:52;14.90;99.90
24176;DHT22;12324;48.146;11.502;2023-07-02T06:31:19;15.00;99.90
24176;DHT22;12324;48.146;11.502;2023-07-02T06:33:45;14.90;99.90
24176;DHT22;12324;48.146;11.502;2023-07-02T06:36:13;15.10;99.90
24176;DHT22;12324;48.146;11.502;2023-07-02T06:38:44;15.00;99.90
24176;DHT22;12324;48.146;11.502;2023-07-02T06:41:10;14.90;99.90
24176;DHT22;12324;48.146;11.502;2023-07-02T06:43:37;15.00;99.90
24176;DHT22;12324;48.146;11.502;2023-07-02T06:46:04;14.90;99.90
24176;DHT22;12324;48.146;11.502;2023-07-02T06:48:31;14.80;99.90
24176;DHT22;12324;48.146;11.502;2023-07-02T06:50:58;14.80;99.90
24176;DHT22;12324;48.146;11.502;2023-07-02T06:53:24;14.90;99.90
24176;DHT22;12324;48.146;11.502;2023-07-02T06:55:51;15.00;99.90
24176;DHT22;12324;48.146;11.502;2023-07-02T06:58:18;15.00;99.90
24176;DHT22;12324;48.146;11.502;2023-07-02T07:00:45;15.10;99.90
24176;DHT22;12324;48.146;11.502;2023-07-02T07:03:12;15.00;99.90
24176;DHT22;12324;48.146;11.502;2023-07-02T07:05:39;14.70;99.90
24176;DHT22;12324;48.146;11.502;2023-07-02T07:08:05;14.60;99.90
24176;DHT22;12324;48.146;11.502;2023-07-02T07:10:32;14.80;99.90
24176;DHT22;12324;48.146;11.502;2023-07-02T07:13:02;14.50;99.90
24176;DHT22;12324;48.146;11.502;2023-07-02T07:15:34;14.30;99.90
24176;DHT22;12324;48.146;11.502;2023-07-02T07:18:02;14.10;99.90
24176;DHT22;12324;48.146;11.502;2023-07-02T07:20:30;14.10;99.90
24176;DHT22;12324;48.146;11.502;2023-07-02T07:22:57;14.00;99.90
24176;DHT22;12324;48.146;11.502;2023-07-02T07:25:24;13.90;99.90
24176;DHT22;12324;48.146;11.502;2023-07-02T07:27:51;14.00;99.90
24176;DHT22;12324;48.146;11.502;2023-07-02T07:30:18;14.00;99.90
24176;DHT22;12324;48.146;11.502;2023-07-02T07:32:52;13.90;99.90
24176;DHT22;12324;48.146;11.502;2023-07-02T07:35:21;13.90;99.90
24176;DHT22;12324;48.146;11.502;2023-07-02T07:37:48;13.90;99.90
24176;DHT22;12324;48.146;11.502;2023-07-02T07:40:16;13.90;99.90
24176;DHT22;12324;48.146;11.502;2023-07-02T07:42:42;14.00;99.90
24176;DHT22;12324;48.146;11.502;2023-07-02T07:45:10;14.10;99.90
24176;DHT22;12324;48.146;11.502;2023-07-02T07:47:38;14.20;99.90
24176;DHT22;12324;48.146;11.502;2023-07-02T07:50:06;14.20;99.90
24176;DHT22;12324;48.146;11.502;2023-07-02T07:52:41;14.20;99.90
24176;DHT22;12324;48.146;11.502;2023-07-02T07:55:09;14.50;99.90
24176;DHT22;12324;48.146;11.502;2023-07-02T07:57:37;14.50;99.90
24176;DHT22;12324;48.146;11.502;2023-07-02T08:00:05;14.60;99.90
24176;DHT22;12324;48.146;11.502;2023-07-02T08:02:38;14.60;99.90
24176;DHT22;12324;48.146;11.502;2023-07-02T08:05:05;14.50;99.90
24176;DHT22;12324;48.146;11.502;2023-07-02T08:07:32;14.90;99.90
24176;DHT22;12324;48.146;11.502;2023-07-02T08:09:59;15.00;99.90
24176;DHT22;12324;48.146;11.502;2023-07-02T08:12:26;15.00;99.90
24176;DHT22;12324;48.146;11.502;2023-07-02T08:14:56;15.30;99.90
24176;DHT22;12324;48.146;11.502;2023-07-02T08:17:22;14.90;99.90
24176;DHT22;12324;48.146;11.502;2023-07-02T08:19:49;15.10;99.90
24176;DHT22;12324;48.146;11.502;2023-07-02T08:22:16;15.10;99.90
24176;DHT22;12324;48.146;11.502;2023-07-02T08:24:42;15.20;99.90
24176;DHT22;12324;48.146;11.502;2023-07-02T08:27:09;15.20;99.90
24176;DHT22;12324;48.146;11.502;2023-07-02T08:29:40;15.10;99.90
24176;DHT22;12324;48.146;11.502;2023-07-02T08:32:07;14.90;99.90
24176;DHT22;12324;48.146;11.502;2023-07-02T08:34:34;15.10;99.90
24176;DHT22;12324;48.146;11.502;2023-07-02T08:37:00;15.20;99.90
24176;DHT22;12324;48.146;11.502;2023-07-02T08:39:27;15.30;99.90
24176;DHT22;12324;48.146;11.502;2023-07-02T08:41:54;15.20;99.90
24176;DHT22;12324;48.146;11.502;2023-07-02T08:44:21;15.30;99.90
24176;DHT22;12324;48.146;11.502;2023-07-02T08:46:48;15.20;99.90
24176;DHT22;12324;48.146;11.502;2023-07-02T08:49:17;15.20;99.90
24176;DHT22;12324;48.146;11.502;2023-07-02T08:51:45;15.10;99.90
24176;DHT22;12324;48.146;11.502;2023-07-02T08:54:12;15.20;99.90
24176;DHT22;12324;48.146;11.502;2023-07-02T08:56:41;15.20;99.90
24176;DHT22;12324;48.146;11.502;2023-07-02T08:59:09;15.10;99.90
24176;DHT22;12324;48.146;11.502;2023-07-02T09:01:50;15.20;99.90
24176;DHT22;12324;48.146;11.502;2023-07-02T09:04:24;15.20;99.90
24176;DHT22;12324;48.146;11.502;2023-07-02T09:07:06;14.90;99.90
24176;DHT22;12324;48.146;11.502;2023-07-02T09:09:46;14.90;99.90
24176;DHT22;12324;48.146;11.502;2023-07-02T09:12:31;15.00;99.90
24176;DHT22;12324;48.146;11.502;2023-07-02T09:15:03;15.20;99.90
24176;DHT22;12324;48.146;11.502;2023-07-02T09:17:34;15.30;99.90
24176;DHT22;12324;48.146;11.502;2023-07-02T09:20:04;15.50;99.90
24176;DHT22;12324;48.146;11.502;2023-07-02T09:22:34;15.30;99.90
24176;DHT22;12324;48.146;11.502;2023-07-02T09:25:01;15.30;99.90
24176;DHT22;12324;48.146;11.502;2023-07-02T09:27:39;15.30;99.90
24176;DHT22;12324;48.146;11.502;2023-07-02T09:30:13;15.50;99.90
24176;DHT22;12324;48.146;11.502;2023-07-02T09:32:43;15.70;99.90
24176;DHT22;12324;48.146;11.502;2023-07-02T09:35:11;15.70;99.90
24176;DHT22;12324;48.146;11.502;2023-07-02T09:37:39;15.70;99.90
24176;DHT22;12324;48.146;11.502;2023-07-02T09:40:08;15.80;99.90
24176;DHT22;12324;48.146;11.502;2023-07-02T09:42:37;15.90;99.90
24176;DHT22;12324;48.146;11.502;2023-07-02T09:45:08;15.90;99.90
24176;DHT22;12324;48.146;11.502;2023-07-02T09:47:39;16.00;99.90
24176;DHT22;12324;48.146;11.502;2023-07-02T09:50:08;16.00;99.90
24176;DHT22;12324;48.146;11.502;2023-07-02T09:52:37;15.80;99.90
24176;DHT22;12324;48.146;11.502;2023-07-02T09:55:04;15.90;99.90
24176;DHT22;12324;48.146;11.502;2023-07-02T09:57:33;15.80;99.90
24176;DHT22;12324;48.146;11.502;2023-07-02T10:00:02;15.80;99.90
24176;DHT22;12324;48.146;11.502;2023-07-02T10:02:29;15.80;99.90
24176;DHT22;12324;48.146;11.502;2023-07-02T10:04:55;15.70;99.90
24176;DHT22;12324;48.146;11.502;2023-07-02T10:07:31;15.70;99.90
24176;DHT22;12324;48.146;11.502;2023-07-02T10:09:59;16.00;99.90
24176;DHT22;12324;48.146;11.502;2023-07-02T10:12:27;15.90;99.90
24176;DHT22;12324;48.146;11.502;2023-07-02T10:17:24;16.50;99.90
24176;DHT22;12324;48.146;11.502;2023-07-02T10:19:52;17.30;99.90
24176;DHT22;12324;48.146;11.502;2023-07-02T10:40:09;17.20;99.90
24176;DHT22;12324;48.146;11.502;2023-07-02T10:42:48;18.60;99.90
24176;DHT22;12324;48.146;11.502;2023-07-02T10:45:17;18.20;99.90
24176;DHT22;12324;48.146;11.502;2023-07-02T10:47:44;18.30;99.90
24176;DHT22;12324;48.146;11.502;2023-07-02T10:50:18;18.40;99.90
24176;DHT22;12324;48.146;11.502;2023-07-02T11:15:11;19.10;99.90
24176;DHT22;12324;48.146;11.502;2023-07-02T11:17:39;20.30;99.90
24176;DHT22;12324;48.146;11.502;2023-07-02T11:20:12;20.50;99.90
24176;DHT22;12324;48.146;11.502;2023-07-02T11:32:46;20.50;99.90
24176;DHT22;12324;48.146;11.502;2023-07-02T11:35:15;20.40;99.90
24176;DHT22;12324;48.146;11.502;2023-07-02T12:27:02;20.60;99.90
24176;DHT22;12324;48.146;11.502;2023-07-02T13:11:13;22.20;99.90
24176;DHT22;12324;48.146;11.502;2023-07-02T13:13:41;24.20;99.90
24176;DHT22;12324;48.146;11.502;2023-07-02T13:16:07;24.50;99.90
24176;DHT22;12324;48.146;11.502;2023-07-02T13:33:18;23.60;99.90
24176;DHT22;12324;48.146;11.502;2023-07-02T13:50:28;23.30;99.90
24176;DHT22;12324;48.146;11.502;2023-07-02T13:52:55;23.10;99.90
24176;DHT22;12324;48.146;11.502;2023-07-02T13:55:22;23.20;99.90
24176;DHT22;12324;48.146;11.502;2023-07-02T14:02:49;23.30;99.90
24176;DHT22;12324;48.146;11.502;2023-07-02T14:05:16;23.10;99.90
24176;DHT22;12324;48.146;11.502;2023-07-02T14:07:43;23.20;99.90
24176;DHT22;12324;48.146;11.502;2023-07-02T14:17:34;23.40;99.90
24176;DHT22;12324;48.146;11.502;2023-07-02T14:20:02;24.10;99.90
24176;DHT22;12324;48.146;11.502;2023-07-02T14:22:29;24.00;99.90
24176;DHT22;12324;48.146;11.502;2023-07-02T14:24:56;24.50;99.90
24176;DHT22;12324;48.146;11.502;2023-07-02T14:27:22;24.50;99.90
24176;DHT22;12324;48.146;11.502;2023-07-02T14:39:39;24.40;99.90
24176;DHT22;12324;48.146;11.502;2023-07-02T14:54:27;24.00;99.90
24176;DHT22;12324;48.146;11.502;2023-07-02T14:56:53;24.70;99.90
24176;DHT22;12324;48.146;11.502;2023-07-02T14:59:20;24.50;99.90
24176;DHT22;12324;48.146;11.502;2023-07-02T15:01:47;24.30;99.90
24176;DHT22;12324;48.146;11.502;2023-07-02T15:04:14;24.30;99.90
24176;DHT22;12324;48.146;11.502;2023-07-02T15:09:08;25.10;99.90
24176;DHT22;12324;48.146;11.502;2023-07-02T15:11:35;24.70;99.90
24176;DHT22;12324;48.146;11.502;2023-07-02T15:16:29;23.80;99.90
24176;DHT22;12324;48.146;11.502;2023-07-02T15:33:39;24.00;99.90
24176;DHT22;12324;48.146;11.502;2023-07-02T15:38:35;25.30;99.90
24176;DHT22;12324;48.146;11.502;2023-07-02T15:41:11;25.30;99.90
24176;DHT22;12324;48.146;11.502;2023-07-02T15:46:08;25.20;99.90
24176;DHT22;12324;48.146;11.502;2023-07-02T15:48:35;26.20;99.90
24176;DHT22;12324;48.146;11.502;2023-07-02T16:45:15;26.20;99.90
24176;DHT22;12324;48.146;11.502;2023-07-02T16:50:09;25.00;99.90
24176;DHT22;12324;48.146;11.502;2023-07-02T16:52:36;23.70;99.90
24176;DHT22;12324;48.146;11.502;2023-07-02T16:55:03;23.60;99.90
24176;DHT22;12324;48.146;11.502;2023-07-02T16:57:30;23.80;99.90
24176;DHT22;12324;48.146;11.502;2023-07-02T17:09:46;24.20;99.90
24176;DHT22;12324;48.146;11.502;2023-07-02T17:12:16;25.00;99.90
24176;DHT22;12324;48.146;11.502;2023-07-02T17:14:45;26.00;99.90
24176;DHT22;12324;48.146;11.502;2023-07-02T17:59:18;26.10;99.90
24176;DHT22;12324;48.146;11.502;2023-07-02T18:01:47;23.80;99.90
24176;DHT22;12324;48.146;11.502;2023-07-02T18:04:17;23.80;99.90
24176;DHT22;12324;48.146;11.502;2023-07-02T18:11:40;23.70;99.90
24176;DHT22;12324;48.146;11.502;2023-07-02T18:14:07;23.10;99.90
24176;DHT22;12324;48.146;11.502;2023-07-02T18:16:34;22.90;99.90
24176;DHT22;12324;48.146;11.502;2023-07-02T18:19:01;22.70;99.90
24176;DHT22;12324;48.146;11.502;2023-07-02T18:21:28;22.50;99.90
24176;DHT22;12324;48.146;11.502;2023-07-02T18:23:57;22.50;99.90
24176;DHT22;12324;48.146;11.502;2023-07-02T18:26:27;22.40;99.90
24176;DHT22;12324;48.146;11.502;2023-07-02T18:28:54;22.30;99.90
24176;DHT22;12324;48.146;11.502;2023-07-02T18:31:20;22.20;99.90
24176;DHT22;12324;48.146;11.502;2023-07-02T18:33:47;22.10;99.90
24176;DHT22;12324;48.146;11.502;2023-07-02T18:41:11;22.00;99.90
24176;DHT22;12324;48.146;11.502;2023-07-02T18:43:38;21.70;99.90
24176;DHT22;12324;48.146;11.502;2023-07-02T18:46:06;21.60;99.90
24176;DHT22;12324;48.146;11.502;2023-07-02T18:48:34;21.60;99.90
24176;DHT22;12324;48.146;11.502;2023-07-02T19:01:06;21.50;99.90
24176;DHT22;12324;48.146;11.502;2023-07-02T19:03:34;21.30;99.90
24176;DHT22;12324;48.146;11.502;2023-07-02T19:13:30;21.20;99.90
24176;DHT22;12324;48.146;11.502;2023-07-02T19:15:57;21.10;99.90
24176;DHT22;12324;48.146;11.502;2023-07-02T19:18:24;21.00;99.90
24176;DHT22;12324;48.146;11.502;2023-07-02T19:20:52;21.00;99.90
24176;DHT22;12324;48.146;11.502;2023-07-02T19:23:18;20.90;99.90
24176;DHT22;12324;48.146;11.502;2023-07-02T19:25:45;20.80;99.90
24176;DHT22;12324;48.146;11.502;2023-07-02T19:28:13;20.80;99.90
24176;DHT22;12324;48.146;11.502;2023-07-02T19:30:40;20.70;99.90
24176;DHT22;12324;48.146;11.502;2023-07-02T19:33:06;20.70;99.90
24176;DHT22;12324;48.146;11.502;2023-07-02T19:35:36;20.60;99.90
24176;DHT22;12324;48.146;11.502;2023-07-02T19:38:03;20.60;99.90
24176;DHT22;12324;48.146;11.502;2023-07-02T19:40:29;20.60;99.90
24176;DHT22;12324;48.146;11.502;2023-07-02T19:42:56;20.50;99.90
24176;DHT22;12324;48.146;11.502;2023-07-02T19:45:23;20.40;99.90
24176;DHT22;12324;48.146;11.502;2023-07-02T19:47:49;20.40;99.90
24176;DHT22;12324;48.146;11.502;2023-07-02T19:50:16;20.40;99.90
24176;DHT22;12324;48.146;11.502;2023-07-02T19:52:43;20.30;99.90
24176;DHT22;12324;48.146;11.502;2023-07-02T19:55:11;20.20;99.90
